createdAt,value
2022-10-18T00:00:24.637Z,25.71
2022-10-18T00:00:54.692Z,25.71
2022-10-18T00:01:24.687Z,25.71
2022-10-18T00:01:54.765Z,25.71
2022-10-18T00:02:24.822Z,25.71
2022-10-18T00:02:54.825Z,25.71
2022-10-18T00:03:24.851Z,25.71
2022-10-18T00:03:54.872Z,25.70
2022-10-18T00:04:24.901Z,25.71
2022-10-18T00:04:54.921Z,25.70
2022-10-18T00:05:24.942Z,25.70
2022-10-18T00:05:54.977Z,25.70
2022-10-18T00:06:25.003Z,25.70
2022-10-18T00:06:55.022Z,25.71
2022-10-18T00:07:25.049Z,25.73
2022-10-18T00:07:55.066Z,25.74
2022-10-18T00:08:25.088Z,25.73
2022-10-18T00:08:55.116Z,25.71
2022-10-18T00:09:25.134Z,25.71
2022-10-18T00:09:55.154Z,25.71
2022-10-18T00:10:25.178Z,25.71
2022-10-18T00:10:55.212Z,25.71
2022-10-18T00:11:25.248Z,25.71
2022-10-18T00:11:55.270Z,25.71
2022-10-18T00:12:25.289Z,25.71
2022-10-18T00:12:55.321Z,25.73
2022-10-18T00:13:25.343Z,25.68
2022-10-18T00:13:55.377Z,25.70
2022-10-18T00:14:25.395Z,25.73
2022-10-18T00:14:55.414Z,25.71
2022-10-18T00:15:25.431Z,25.70
2022-10-18T00:15:55.457Z,25.68
2022-10-18T00:16:25.504Z,25.70
2022-10-18T00:16:55.505Z,25.71
2022-10-18T00:17:25.526Z,25.70
2022-10-18T00:17:55.549Z,25.70
2022-10-18T00:18:25.573Z,25.70
2022-10-18T00:18:55.594Z,25.70
2022-10-18T00:19:28.530Z,25.70
2022-10-18T00:19:55.628Z,25.68
2022-10-18T00:20:25.657Z,25.67
2022-10-18T00:20:55.682Z,25.67
2022-10-18T00:21:25.711Z,25.71
2022-10-18T00:21:55.743Z,25.70
2022-10-18T00:22:25.758Z,25.70
2022-10-18T00:22:55.776Z,25.68
2022-10-18T00:23:25.792Z,25.70
2022-10-18T00:23:55.816Z,25.70
2022-10-18T00:24:25.843Z,25.68
2022-10-18T00:24:55.861Z,25.68
2022-10-18T00:25:25.879Z,25.71
2022-10-18T00:25:55.899Z,25.71
2022-10-18T00:26:25.923Z,25.68
2022-10-18T00:26:55.944Z,25.68
2022-10-18T00:27:25.968Z,25.67
2022-10-18T00:27:55.991Z,25.68
2022-10-18T00:28:26.062Z,25.67
2022-10-18T00:28:56.112Z,25.68
2022-10-18T00:29:26.129Z,25.68
2022-10-18T00:29:56.152Z,25.67
2022-10-18T00:30:26.172Z,25.68
2022-10-18T00:30:56.204Z,25.67
2022-10-18T00:31:26.220Z,25.66
2022-10-18T00:31:56.273Z,25.67
2022-10-18T00:32:26.270Z,25.67
2022-10-18T00:32:56.294Z,25.68
2022-10-18T00:33:26.312Z,25.68
2022-10-18T00:33:56.333Z,25.68
2022-10-18T00:34:26.356Z,25.67
2022-10-18T00:34:56.383Z,25.67
2022-10-18T00:35:26.404Z,25.66
2022-10-18T00:35:56.427Z,25.68
2022-10-18T00:36:26.462Z,25.67
2022-10-18T00:36:56.480Z,25.67
2022-10-18T00:37:26.502Z,25.67
2022-10-18T00:37:56.529Z,25.66
2022-10-18T00:38:26.552Z,25.66
2022-10-18T00:38:56.575Z,25.67
2022-10-18T00:39:26.593Z,25.67
2022-10-18T00:39:56.621Z,25.67
2022-10-18T00:40:26.639Z,25.67
2022-10-18T00:40:56.655Z,25.66
2022-10-18T00:41:26.682Z,25.64
2022-10-18T00:41:56.705Z,25.66
2022-10-18T00:42:26.722Z,25.66
2022-10-18T00:42:56.743Z,25.67
2022-10-18T00:43:26.770Z,25.66
2022-10-18T00:43:56.792Z,25.67
2022-10-18T00:44:26.810Z,25.67
2022-10-18T00:44:56.826Z,25.70
2022-10-18T00:45:26.845Z,25.67
2022-10-18T00:45:56.882Z,25.67
2022-10-18T00:46:26.912Z,25.67
2022-10-18T00:46:56.897Z,25.68
2022-10-18T00:47:27.028Z,25.68
2022-10-18T00:47:57.115Z,25.68
2022-10-18T00:48:27.229Z,25.67
2022-10-18T00:48:57.343Z,25.70
2022-10-18T00:49:27.456Z,25.67
2022-10-18T00:49:57.558Z,25.67
2022-10-18T00:50:27.671Z,25.67
2022-10-18T00:50:57.783Z,25.66
2022-10-18T00:51:27.925Z,25.64
2022-10-18T00:51:57.914Z,25.68
2022-10-18T00:52:28.210Z,25.66
2022-10-18T00:52:58.051Z,25.66
2022-10-18T00:53:28.157Z,25.67
2022-10-18T00:53:58.271Z,25.66
2022-10-18T00:54:28.385Z,25.68
2022-10-18T00:54:58.489Z,25.68
2022-10-18T00:55:28.597Z,25.64
2022-10-18T00:55:58.706Z,25.66
2022-10-18T00:56:28.707Z,25.64
2022-10-18T00:56:58.727Z,25.68
2022-10-18T00:57:28.745Z,25.64
2022-10-18T00:57:58.769Z,25.67
2022-10-18T00:58:28.786Z,25.66
2022-10-18T00:58:58.806Z,25.64
2022-10-18T00:59:28.825Z,25.66
2022-10-18T00:59:58.850Z,25.66
2022-10-18T01:00:28.885Z,25.67
2022-10-18T01:00:58.914Z,25.66
2022-10-18T01:01:28.998Z,25.64
2022-10-18T01:01:59.094Z,25.67
2022-10-18T01:02:29.448Z,25.66
2022-10-18T01:02:59.129Z,25.66
2022-10-18T01:03:29.149Z,25.67
2022-10-18T01:03:59.172Z,25.66
2022-10-18T01:04:29.196Z,25.64
2022-10-18T01:04:59.219Z,25.68
2022-10-18T01:05:29.241Z,25.67
2022-10-18T01:05:59.285Z,25.64
2022-10-18T01:06:29.311Z,25.66
2022-10-18T01:06:59.333Z,25.67
2022-10-18T01:07:29.637Z,25.67
2022-10-18T01:07:59.397Z,25.64
2022-10-18T01:08:29.417Z,25.64
2022-10-18T01:08:59.444Z,25.64
2022-10-18T01:09:29.465Z,25.66
2022-10-18T01:09:59.484Z,25.66
2022-10-18T01:10:29.507Z,25.63
2022-10-18T01:10:59.547Z,25.61
2022-10-18T01:11:29.570Z,25.63
2022-10-18T01:11:59.601Z,25.63
2022-10-18T01:12:29.613Z,25.64
2022-10-18T01:12:59.633Z,25.64
2022-10-18T01:13:29.655Z,25.64
2022-10-18T01:13:59.678Z,25.63
2022-10-18T01:14:29.702Z,25.66
2022-10-18T01:14:59.720Z,25.64
2022-10-18T01:15:29.741Z,25.63
2022-10-18T01:15:59.779Z,25.64
2022-10-18T01:16:29.797Z,25.63
2022-10-18T01:16:59.823Z,25.63
2022-10-18T01:17:30.174Z,25.63
2022-10-18T01:17:59.936Z,25.66
2022-10-18T01:18:29.934Z,25.64
2022-10-18T01:18:59.952Z,25.63
2022-10-18T01:19:29.974Z,25.64
2022-10-18T01:19:59.999Z,25.66
2022-10-18T01:20:30.017Z,25.64
2022-10-18T01:21:00.053Z,25.63
2022-10-18T01:21:30.074Z,25.63
2022-10-18T01:22:00.096Z,25.64
2022-10-18T01:22:30.123Z,25.63
2022-10-18T01:23:00.147Z,25.66
2022-10-18T01:23:30.174Z,25.60
2022-10-18T01:24:00.200Z,25.64
2022-10-18T01:24:30.233Z,25.64
2022-10-18T01:25:00.351Z,25.64
2022-10-18T01:25:30.368Z,25.64
2022-10-18T01:26:00.412Z,25.64
2022-10-18T01:26:30.437Z,25.63
2022-10-18T01:27:00.460Z,25.64
2022-10-18T01:27:30.783Z,25.64
2022-10-18T01:28:00.549Z,25.66
2022-10-18T01:28:30.711Z,25.64
2022-10-18T01:29:00.723Z,25.63
2022-10-18T01:29:30.745Z,25.63
2022-10-18T01:30:00.765Z,25.66
2022-10-18T01:30:30.789Z,25.64
2022-10-18T01:31:00.837Z,25.64
2022-10-18T01:31:30.862Z,25.66
2022-10-18T01:32:00.882Z,25.63
2022-10-18T01:32:30.904Z,25.61
2022-10-18T01:33:00.924Z,25.64
2022-10-18T01:33:30.970Z,25.63
2022-10-18T01:34:31.083Z,25.66
2022-10-18T01:35:01.100Z,25.63
2022-10-18T01:35:31.117Z,25.64
2022-10-18T01:36:01.152Z,25.63
2022-10-18T01:36:31.175Z,25.60
2022-10-18T01:37:01.195Z,25.63
2022-10-18T01:37:31.450Z,25.64
2022-10-18T01:38:01.325Z,25.61
2022-10-18T01:38:31.349Z,25.64
2022-10-18T01:39:01.368Z,25.64
2022-10-18T01:39:31.390Z,25.64
2022-10-18T01:40:01.409Z,25.63
2022-10-18T01:40:31.435Z,25.61
2022-10-18T01:41:01.474Z,25.61
2022-10-18T01:41:31.504Z,25.61
2022-10-18T01:42:01.532Z,25.63
2022-10-18T01:42:31.556Z,25.61
2022-10-18T01:43:01.683Z,25.61
2022-10-18T01:43:31.696Z,25.60
2022-10-18T01:44:01.719Z,25.60
2022-10-18T01:44:31.735Z,25.61
2022-10-18T01:45:01.757Z,25.63
2022-10-18T01:45:31.777Z,25.63
2022-10-18T01:46:01.814Z,25.61
2022-10-18T01:46:31.821Z,25.61
2022-10-18T01:47:01.931Z,25.61
2022-10-18T01:47:32.360Z,25.61
2022-10-18T01:48:02.121Z,25.61
2022-10-18T01:48:32.232Z,25.60
2022-10-18T01:49:02.361Z,25.61
2022-10-18T01:49:32.449Z,25.60
2022-10-18T01:50:02.558Z,25.60
2022-10-18T01:50:32.671Z,25.61
2022-10-18T01:51:02.795Z,25.63
2022-10-18T01:51:32.782Z,25.58
2022-10-18T01:52:03.007Z,25.58
2022-10-18T01:52:33.222Z,25.60
2022-10-18T01:53:03.090Z,25.63
2022-10-18T01:53:33.195Z,25.61
2022-10-18T01:54:03.312Z,25.60
2022-10-18T01:54:33.419Z,25.61
2022-10-18T01:55:03.526Z,25.61
2022-10-18T01:55:33.637Z,25.60
2022-10-18T01:56:03.767Z,25.61
2022-10-18T01:56:33.772Z,25.61
2022-10-18T01:57:03.801Z,25.60
2022-10-18T01:57:33.808Z,25.61
2022-10-18T01:58:03.836Z,25.58
2022-10-18T01:58:33.867Z,25.61
2022-10-18T01:59:03.893Z,25.60
2022-10-18T01:59:33.921Z,25.61
2022-10-18T02:00:03.947Z,25.61
2022-10-18T02:00:33.960Z,25.60
2022-10-18T02:01:04.084Z,25.60
2022-10-18T02:01:34.087Z,25.60
2022-10-18T02:02:04.112Z,25.60
2022-10-18T02:02:34.433Z,25.60
2022-10-18T02:03:04.238Z,25.58
2022-10-18T02:03:34.269Z,25.60
2022-10-18T02:04:04.289Z,25.60
2022-10-18T02:04:34.330Z,25.58
2022-10-18T02:05:04.332Z,25.60
2022-10-18T02:05:34.354Z,25.61
2022-10-18T02:06:04.395Z,25.58
2022-10-18T02:06:34.416Z,25.58
2022-10-18T02:07:04.439Z,25.61
2022-10-18T02:07:34.458Z,25.60
2022-10-18T02:08:12.347Z,25.60
2022-10-18T02:08:34.525Z,25.61
2022-10-18T02:09:04.548Z,25.58
2022-10-18T02:09:34.565Z,25.60
2022-10-18T02:10:04.629Z,25.61
2022-10-18T02:10:34.663Z,25.60
2022-10-18T02:11:04.699Z,25.61
2022-10-18T02:11:34.729Z,25.60
2022-10-18T02:12:04.752Z,25.58
2022-10-18T02:12:34.768Z,25.61
2022-10-18T02:13:04.805Z,25.61
2022-10-18T02:13:34.809Z,25.60
2022-10-18T02:14:04.832Z,25.61
2022-10-18T02:14:34.855Z,25.61
2022-10-18T02:15:04.872Z,25.60
2022-10-18T02:15:34.898Z,25.60
2022-10-18T02:16:04.965Z,25.60
2022-10-18T02:16:34.988Z,25.60
2022-10-18T02:17:05.008Z,25.60
2022-10-18T02:17:35.030Z,25.60
2022-10-18T02:18:05.055Z,25.58
2022-10-18T02:18:35.081Z,25.60
2022-10-18T02:19:05.099Z,25.58
2022-10-18T02:19:35.129Z,25.58
2022-10-18T02:20:05.169Z,25.58
2022-10-18T02:20:35.172Z,25.60
2022-10-18T02:21:05.216Z,25.57
2022-10-18T02:21:35.235Z,25.58
2022-10-18T02:22:05.253Z,25.57
2022-10-18T02:22:35.272Z,25.60
2022-10-18T02:23:05.299Z,25.58
2022-10-18T02:23:35.322Z,25.60
2022-10-18T02:24:05.340Z,25.57
2022-10-18T02:24:35.363Z,25.60
2022-10-18T02:25:05.390Z,25.57
2022-10-18T02:25:35.411Z,25.58
2022-10-18T02:26:05.452Z,25.58
2022-10-18T02:26:35.484Z,25.60
2022-10-18T02:27:05.511Z,25.57
2022-10-18T02:27:35.530Z,25.58
2022-10-18T02:28:05.550Z,25.58
2022-10-18T02:28:35.578Z,25.58
2022-10-18T02:29:05.595Z,25.58
2022-10-18T02:29:35.616Z,25.58
2022-10-18T02:30:05.643Z,25.57
2022-10-18T02:30:35.670Z,25.57
2022-10-18T02:31:05.705Z,25.60
2022-10-18T02:31:35.728Z,25.58
2022-10-18T02:32:05.746Z,25.58
2022-10-18T02:32:35.770Z,25.56
2022-10-18T02:33:05.795Z,25.56
2022-10-18T02:33:35.817Z,25.58
2022-10-18T02:34:05.835Z,25.57
2022-10-18T02:34:35.856Z,25.56
2022-10-18T02:35:05.874Z,25.57
2022-10-18T02:35:35.921Z,25.58
2022-10-18T02:36:05.934Z,25.56
2022-10-18T02:36:35.955Z,25.58
2022-10-18T02:37:05.997Z,25.58
2022-10-18T02:37:36.001Z,25.58
2022-10-18T02:38:06.023Z,25.58
2022-10-18T02:38:36.040Z,25.57
2022-10-18T02:39:06.062Z,25.58
2022-10-18T02:39:36.083Z,25.58
2022-10-18T02:40:06.104Z,25.57
2022-10-18T02:40:36.130Z,25.57
2022-10-18T02:41:06.168Z,25.57
2022-10-18T02:41:36.188Z,25.57
2022-10-18T02:42:06.206Z,25.56
2022-10-18T02:42:36.232Z,25.56
2022-10-18T02:43:06.248Z,25.56
2022-10-18T02:43:36.269Z,25.57
2022-10-18T02:44:06.290Z,25.56
2022-10-18T02:44:36.308Z,25.57
2022-10-18T02:45:06.339Z,25.57
2022-10-18T02:45:36.359Z,25.56
2022-10-18T02:46:06.383Z,25.56
2022-10-18T02:46:36.398Z,25.57
2022-10-18T02:47:06.504Z,25.57
2022-10-18T02:47:36.614Z,25.54
2022-10-18T02:48:06.728Z,25.57
2022-10-18T02:48:36.841Z,25.57
2022-10-18T02:49:06.953Z,25.56
2022-10-18T02:49:37.063Z,25.56
2022-10-18T02:50:07.168Z,25.57
2022-10-18T02:50:37.281Z,25.56
2022-10-18T02:51:07.415Z,25.54
2022-10-18T02:51:37.505Z,25.56
2022-10-18T02:52:07.613Z,25.54
2022-10-18T02:52:37.720Z,25.56
2022-10-18T02:53:07.838Z,25.56
2022-10-18T02:53:37.947Z,25.56
2022-10-18T02:54:08.053Z,25.54
2022-10-18T02:54:38.165Z,25.56
2022-10-18T02:55:08.270Z,25.56
2022-10-18T02:55:38.379Z,25.56
2022-10-18T02:56:08.493Z,25.54
2022-10-18T02:56:38.514Z,25.56
2022-10-18T02:57:08.531Z,25.53
2022-10-18T02:57:38.559Z,25.51
2022-10-18T02:58:08.578Z,25.56
2022-10-18T02:58:38.600Z,25.56
2022-10-18T02:59:08.639Z,25.56
2022-10-18T02:59:38.659Z,25.56
2022-10-18T03:00:08.685Z,25.56
2022-10-18T03:00:38.704Z,25.57
2022-10-18T03:01:08.784Z,25.56
2022-10-18T03:01:38.894Z,25.56
2022-10-18T03:02:08.884Z,25.56
2022-10-18T03:02:38.911Z,25.54
2022-10-18T03:03:08.930Z,25.54
2022-10-18T03:03:38.955Z,25.54
2022-10-18T03:04:08.980Z,25.54
2022-10-18T03:04:39.009Z,25.56
2022-10-18T03:05:09.025Z,25.56
2022-10-18T03:05:39.042Z,25.56
2022-10-18T03:06:09.086Z,25.54
2022-10-18T03:06:39.103Z,25.56
2022-10-18T03:07:09.135Z,25.57
2022-10-18T03:07:39.150Z,25.54
2022-10-18T03:08:09.165Z,25.56
2022-10-18T03:08:39.192Z,25.56
2022-10-18T03:09:09.221Z,25.54
2022-10-18T03:09:39.246Z,25.56
2022-10-18T03:10:09.264Z,25.54
2022-10-18T03:10:39.281Z,25.56
2022-10-18T03:11:09.298Z,25.53
2022-10-18T03:11:39.326Z,25.54
2022-10-18T03:12:09.347Z,25.54
2022-10-18T03:12:39.370Z,25.53
2022-10-18T03:13:09.390Z,25.54
2022-10-18T03:13:39.470Z,25.56
2022-10-18T03:14:09.522Z,25.53
2022-10-18T03:14:39.547Z,25.54
2022-10-18T03:15:09.570Z,25.54
2022-10-18T03:15:39.593Z,25.53
2022-10-18T03:16:09.613Z,25.54
2022-10-18T03:16:39.639Z,25.53
2022-10-18T03:17:09.668Z,25.54
2022-10-18T03:17:39.690Z,25.53
2022-10-18T03:18:09.711Z,25.51
2022-10-18T03:18:39.730Z,25.53
2022-10-18T03:19:09.748Z,25.54
2022-10-18T03:19:39.768Z,25.54
2022-10-18T03:20:09.795Z,25.54
2022-10-18T03:20:39.815Z,25.53
2022-10-18T03:21:09.842Z,25.54
2022-10-18T03:21:39.884Z,25.53
2022-10-18T03:22:09.880Z,25.54
2022-10-18T03:22:39.902Z,25.51
2022-10-18T03:23:09.925Z,25.54
2022-10-18T03:23:39.947Z,25.53
2022-10-18T03:24:09.997Z,25.56
2022-10-18T03:24:40.028Z,25.53
2022-10-18T03:25:10.042Z,25.54
2022-10-18T03:25:42.815Z,25.53
2022-10-18T03:26:10.119Z,25.53
2022-10-18T03:26:40.140Z,25.53
2022-10-18T03:27:10.161Z,25.53
2022-10-18T03:27:40.181Z,25.50
2022-10-18T03:28:10.202Z,25.53
2022-10-18T03:28:40.342Z,25.53
2022-10-18T03:29:10.328Z,25.53
2022-10-18T03:29:40.246Z,25.51
2022-10-18T03:30:10.279Z,25.51
2022-10-18T03:30:40.296Z,25.51
2022-10-18T03:31:10.334Z,25.54
2022-10-18T03:31:40.359Z,25.53
2022-10-18T03:32:10.374Z,25.53
2022-10-18T03:32:40.392Z,25.51
2022-10-18T03:33:10.423Z,25.54
2022-10-18T03:33:40.446Z,25.54
2022-10-18T03:34:10.464Z,25.49
2022-10-18T03:34:40.487Z,25.53
2022-10-18T03:35:10.510Z,25.51
2022-10-18T03:35:40.529Z,25.51
2022-10-18T03:36:10.551Z,25.51
2022-10-18T03:36:40.581Z,25.53
2022-10-18T03:37:10.633Z,25.53
2022-10-18T03:37:40.628Z,25.53
2022-10-18T03:38:10.653Z,25.51
2022-10-18T03:38:40.674Z,25.50
2022-10-18T03:39:10.692Z,25.51
2022-10-18T03:39:40.711Z,25.50
2022-10-18T03:40:10.734Z,25.49
2022-10-18T03:40:40.754Z,25.53
2022-10-18T03:41:10.779Z,25.49
2022-10-18T03:41:40.795Z,25.51
2022-10-18T03:42:10.825Z,25.49
2022-10-18T03:42:40.843Z,25.51
2022-10-18T03:43:10.860Z,25.51
2022-10-18T03:43:40.889Z,25.49
2022-10-18T03:44:10.907Z,25.50
2022-10-18T03:44:40.932Z,25.49
2022-10-18T03:45:10.948Z,25.50
2022-10-18T03:45:40.971Z,25.51
2022-10-18T03:46:10.990Z,25.50
2022-10-18T03:46:41.116Z,25.50
2022-10-18T03:47:11.222Z,25.51
2022-10-18T03:47:41.335Z,25.50
2022-10-18T03:48:11.445Z,25.51
2022-10-18T03:48:41.553Z,25.51
2022-10-18T03:49:11.663Z,25.49
2022-10-18T03:49:41.775Z,25.47
2022-10-18T03:50:11.881Z,25.50
2022-10-18T03:50:41.988Z,25.49
2022-10-18T03:51:12.098Z,25.46
2022-10-18T03:51:42.213Z,25.44
2022-10-18T03:52:12.323Z,25.49
2022-10-18T03:52:42.448Z,25.49
2022-10-18T03:53:12.537Z,25.47
2022-10-18T03:53:42.648Z,25.47
2022-10-18T03:54:12.766Z,25.47
2022-10-18T03:54:42.869Z,25.47
2022-10-18T03:55:12.979Z,25.50
2022-10-18T03:55:43.099Z,25.46
2022-10-18T03:56:13.209Z,25.49
2022-10-18T03:56:43.233Z,25.47
2022-10-18T03:57:13.262Z,25.47
2022-10-18T03:57:43.287Z,25.47
2022-10-18T03:58:13.307Z,25.46
2022-10-18T03:58:43.326Z,25.47
2022-10-18T03:59:13.460Z,25.47
2022-10-18T03:59:43.463Z,25.44
2022-10-18T04:00:13.473Z,25.46
2022-10-18T04:00:43.499Z,25.47
2022-10-18T04:01:13.558Z,25.47
2022-10-18T04:01:43.704Z,25.46
2022-10-18T04:02:13.580Z,25.46
2022-10-18T04:02:43.600Z,25.47
2022-10-18T04:03:13.625Z,25.44
2022-10-18T04:03:43.642Z,25.47
2022-10-18T04:04:13.667Z,25.46
2022-10-18T04:04:43.689Z,25.46
2022-10-18T04:05:13.713Z,25.47
2022-10-18T04:05:43.734Z,25.47
2022-10-18T04:06:13.761Z,25.47
2022-10-18T04:06:43.792Z,25.46
2022-10-18T04:07:13.817Z,25.44
2022-10-18T04:07:43.842Z,25.47
2022-10-18T04:08:13.896Z,25.47
2022-10-18T04:08:43.893Z,25.47
2022-10-18T04:09:13.913Z,25.49
2022-10-18T04:09:43.934Z,25.46
2022-10-18T04:10:13.959Z,25.46
2022-10-18T04:10:43.984Z,25.47
2022-10-18T04:11:14.000Z,25.44
2022-10-18T04:11:44.041Z,25.46
2022-10-18T04:12:14.060Z,25.47
2022-10-18T04:12:44.082Z,25.47
2022-10-18T04:13:14.118Z,25.47
2022-10-18T04:13:44.125Z,25.47
2022-10-18T04:14:14.145Z,25.46
2022-10-18T04:14:44.163Z,25.47
2022-10-18T04:15:14.187Z,25.47
2022-10-18T04:15:44.203Z,25.47
2022-10-18T04:16:14.230Z,25.47
2022-10-18T04:16:44.260Z,25.46
2022-10-18T04:17:14.287Z,25.47
2022-10-18T04:17:44.302Z,25.44
2022-10-18T04:18:14.321Z,25.46
2022-10-18T04:18:44.349Z,25.43
2022-10-18T04:19:14.372Z,25.44
2022-10-18T04:19:44.389Z,25.44
2022-10-18T04:20:14.422Z,25.44
2022-10-18T04:20:44.435Z,25.46
2022-10-18T04:21:14.454Z,25.46
2022-10-18T04:21:44.489Z,25.47
2022-10-18T04:22:14.516Z,25.47
2022-10-18T04:22:44.531Z,25.47
2022-10-18T04:23:14.553Z,25.47
2022-10-18T04:23:44.631Z,25.44
2022-10-18T04:24:14.613Z,25.44
2022-10-18T04:24:44.640Z,25.44
2022-10-18T04:25:14.659Z,25.47
2022-10-18T04:25:44.682Z,25.46
2022-10-18T04:26:14.699Z,25.47
2022-10-18T04:26:44.724Z,25.49
2022-10-18T04:27:14.750Z,25.51
2022-10-18T04:27:44.774Z,25.51
2022-10-18T04:28:14.795Z,25.56
2022-10-18T04:28:44.870Z,25.57
2022-10-18T04:29:14.896Z,25.58
2022-10-18T04:29:44.926Z,25.57
2022-10-18T04:30:14.944Z,25.56
2022-10-18T04:30:44.979Z,25.57
2022-10-18T04:31:15.009Z,25.57
2022-10-18T04:31:45.020Z,25.58
2022-10-18T04:32:15.045Z,25.58
2022-10-18T04:32:45.061Z,25.58
2022-10-18T04:33:15.090Z,25.58
2022-10-18T04:33:45.109Z,25.60
2022-10-18T04:34:15.132Z,25.60
2022-10-18T04:34:45.180Z,25.60
2022-10-18T04:35:15.244Z,25.61
2022-10-18T04:35:45.325Z,25.63
2022-10-18T04:36:15.388Z,25.61
2022-10-18T04:36:45.421Z,25.63
2022-10-18T04:37:15.437Z,25.61
2022-10-18T04:37:45.464Z,25.64
2022-10-18T04:38:15.487Z,25.66
2022-10-18T04:38:45.510Z,25.67
2022-10-18T04:39:15.555Z,25.68
2022-10-18T04:39:47.486Z,25.70
2022-10-18T04:40:15.659Z,25.67
2022-10-18T04:40:45.673Z,25.71
2022-10-18T04:41:15.697Z,25.68
2022-10-18T04:41:45.753Z,25.73
2022-10-18T04:42:15.777Z,25.74
2022-10-18T04:42:45.794Z,25.73
2022-10-18T04:43:15.813Z,25.73
2022-10-18T04:44:15.831Z,25.74
2022-10-18T04:44:45.852Z,25.74
2022-10-18T04:45:15.874Z,25.71
2022-10-18T04:45:45.894Z,25.77
2022-10-18T04:46:15.919Z,25.75
2022-10-18T04:46:46.062Z,25.78
2022-10-18T04:48:19.681Z,25.74
2022-10-18T04:48:54.202Z,25.75
2022-10-18T04:49:28.968Z,25.71
2022-10-18T05:20:02.494Z,25.71
2022-10-18T05:20:43.496Z,25.68
2022-10-18T05:21:07.541Z,25.71
2022-10-18T05:21:36.976Z,25.73
2022-10-18T05:30:26.035Z,25.75
2022-10-18T05:31:59.139Z,25.83
2022-10-18T05:32:28.469Z,25.83
2022-10-18T05:32:58.535Z,25.88
2022-10-18T05:33:28.609Z,25.91
2022-10-18T05:33:58.679Z,25.92
2022-10-18T05:35:07.883Z,25.91
2022-10-18T05:35:44.900Z,25.91
2022-10-18T05:36:13.399Z,25.92
2022-10-18T05:37:28.323Z,25.96
2022-10-18T05:39:05.255Z,26.01
2022-10-18T05:39:35.303Z,25.98
2022-10-18T05:40:05.375Z,26.02
2022-10-18T05:41:14.565Z,26.01
2022-10-18T05:41:44.775Z,25.99
2022-10-18T05:43:01.917Z,26.01
2022-10-18T05:43:33.009Z,25.98
2022-10-18T05:44:02.968Z,25.99
2022-10-18T05:44:33.040Z,25.98
2022-10-18T05:45:06.026Z,25.94
2022-10-18T05:45:33.222Z,25.95
2022-10-18T05:46:03.306Z,25.94
2022-10-18T05:46:33.291Z,25.94
2022-10-18T05:47:03.391Z,25.94
2022-10-18T05:48:03.545Z,26.02
2022-10-18T05:48:33.716Z,25.99
2022-10-18T05:49:04.613Z,26.03
2022-10-18T05:50:12.911Z,25.96
2022-10-18T05:50:43.110Z,25.99
2022-10-18T05:51:13.091Z,26.01
2022-10-18T05:51:43.198Z,26.05
2022-10-18T05:52:14.017Z,26.03
2022-10-18T05:52:43.227Z,26.08
2022-10-18T05:53:35.331Z,26.09
2022-10-18T05:54:25.984Z,26.09
2022-10-18T05:54:56.103Z,26.06
2022-10-18T05:58:52.602Z,26.05
2022-10-18T06:05:54.685Z,26.03
2022-10-18T06:06:24.754Z,26.03
2022-10-18T06:06:54.732Z,26.09
2022-10-18T06:07:24.833Z,26.11
2022-10-18T06:07:54.923Z,26.13
2022-10-18T06:08:25.038Z,26.13
2022-10-18T06:08:55.207Z,26.19
2022-10-18T06:09:25.183Z,26.22
2022-10-18T06:09:55.961Z,26.25
2022-10-18T06:10:25.256Z,26.29
2022-10-18T06:10:55.324Z,26.29
2022-10-18T06:11:25.395Z,26.33
2022-10-18T06:11:55.469Z,26.37
2022-10-18T06:12:25.625Z,26.37
2022-10-18T06:12:55.645Z,26.39
2022-10-18T06:13:25.729Z,26.40
2022-10-18T06:13:55.804Z,26.46
2022-10-18T06:14:25.880Z,26.46
2022-10-18T06:14:55.950Z,26.46
2022-10-18T06:15:26.037Z,26.48
2022-10-18T06:15:56.146Z,26.48
2022-10-18T06:16:31.248Z,26.51
2022-10-18T06:16:56.316Z,26.51
2022-10-18T06:17:27.779Z,26.53
2022-10-18T06:17:56.500Z,26.54
2022-10-18T06:18:26.622Z,26.57
2022-10-18T06:18:56.753Z,26.56
2022-10-18T06:19:26.764Z,26.57
2022-10-18T06:19:56.878Z,26.60
2022-10-18T06:20:26.987Z,26.60
2022-10-18T06:20:57.139Z,26.64
2022-10-18T06:21:27.140Z,26.61
2022-10-18T06:21:57.248Z,26.61
2022-10-18T06:22:27.348Z,26.64
2022-10-18T06:22:57.462Z,26.64
2022-10-18T06:23:27.565Z,26.67
2022-10-18T06:23:57.681Z,26.68
2022-10-18T06:24:27.816Z,26.67
2022-10-18T06:24:57.811Z,26.68
2022-10-18T06:25:27.916Z,26.70
2022-10-18T06:25:58.015Z,26.68
2022-10-18T06:26:28.132Z,26.73
2022-10-18T06:26:58.304Z,26.70
2022-10-18T06:27:28.297Z,26.74
2022-10-18T06:27:58.408Z,26.71
2022-10-18T06:28:28.583Z,26.71
2022-10-18T06:28:58.629Z,26.74
2022-10-18T06:29:28.655Z,26.74
2022-10-18T06:29:58.751Z,26.75
2022-10-18T06:30:28.866Z,26.74
2022-10-18T06:30:58.870Z,26.75
2022-10-18T06:31:29.004Z,26.78
2022-10-18T06:31:59.087Z,26.77
2022-10-18T06:32:29.233Z,26.78
2022-10-18T06:32:59.257Z,26.78
2022-10-18T06:33:29.370Z,26.78
2022-10-18T06:33:59.476Z,26.78
2022-10-18T06:34:29.622Z,26.78
2022-10-18T06:34:59.588Z,26.77
2022-10-18T06:35:29.710Z,26.80
2022-10-18T06:35:59.854Z,26.78
2022-10-18T06:36:29.897Z,26.77
2022-10-18T06:36:59.856Z,26.77
2022-10-18T06:37:30.285Z,26.78
2022-10-18T06:37:59.937Z,26.75
2022-10-18T06:38:30.131Z,26.80
2022-10-18T06:39:39.232Z,26.75
2022-10-18T06:40:09.335Z,26.77
2022-10-18T06:40:39.412Z,26.75
2022-10-18T06:41:09.492Z,26.75
2022-10-18T06:41:39.567Z,26.74
2022-10-18T06:42:09.740Z,26.80
2022-10-18T06:42:41.282Z,26.77
2022-10-18T06:43:21.197Z,26.73
2022-10-18T06:43:49.861Z,26.71
2022-10-18T06:44:19.859Z,26.75
2022-10-18T06:44:50.885Z,26.74
2022-10-18T06:45:18.969Z,26.73
2022-10-18T06:45:49.103Z,26.74
2022-10-18T06:46:19.182Z,26.74
2022-10-18T06:47:35.890Z,26.68
2022-10-18T06:47:58.417Z,26.67
2022-10-18T06:48:35.498Z,26.68
2022-10-18T06:51:40.228Z,26.60
2022-10-18T06:52:34.477Z,26.54
2022-10-18T06:53:04.204Z,26.57
2022-10-18T06:53:43.671Z,26.54
2022-10-18T06:54:17.408Z,26.53
2022-10-18T06:54:34.366Z,26.54
2022-10-18T06:55:08.972Z,26.54
2022-10-18T06:55:34.426Z,26.57
2022-10-18T06:56:04.499Z,26.57
2022-10-18T06:56:34.594Z,26.57
2022-10-18T06:57:04.694Z,26.58
2022-10-18T06:57:34.772Z,26.60
2022-10-18T06:58:04.867Z,26.58
2022-10-18T06:58:34.937Z,26.63
2022-10-18T06:59:05.011Z,26.65
2022-10-18T06:59:35.085Z,26.67
2022-10-18T07:00:05.150Z,26.67
2022-10-18T07:00:35.217Z,26.65
2022-10-18T07:01:05.293Z,26.65
2022-10-18T07:01:35.409Z,26.67
2022-10-18T07:02:05.448Z,26.67
2022-10-18T07:02:35.428Z,26.67
2022-10-18T07:03:05.538Z,26.68
2022-10-18T07:03:35.653Z,26.71
2022-10-18T07:04:05.772Z,26.71
2022-10-18T07:04:35.878Z,26.73
2022-10-18T07:05:05.987Z,26.73
2022-10-18T07:05:36.114Z,26.71
2022-10-18T07:06:06.125Z,26.74
2022-10-18T07:06:36.275Z,26.73
2022-10-18T07:07:06.295Z,26.77
2022-10-18T07:07:36.526Z,26.78
2022-10-18T07:08:06.490Z,26.80
2022-10-18T07:08:36.590Z,26.81
2022-10-18T07:09:06.724Z,26.81
2022-10-18T07:09:36.712Z,26.82
2022-10-18T07:10:06.821Z,26.80
2022-10-18T07:10:36.939Z,26.81
2022-10-18T07:11:07.037Z,26.87
2022-10-18T07:11:37.155Z,26.87
2022-10-18T07:12:07.274Z,26.85
2022-10-18T07:12:37.268Z,26.87
2022-10-18T07:13:31.072Z,26.87
2022-10-18T07:13:37.382Z,26.87
2022-10-18T07:14:07.773Z,26.84
2022-10-18T07:14:37.574Z,26.88
2022-10-18T07:15:09.482Z,26.88
2022-10-18T07:15:37.786Z,26.88
2022-10-18T07:16:07.792Z,26.90
2022-10-18T07:16:37.907Z,26.91
2022-10-18T07:17:07.895Z,26.98
2022-10-18T07:17:38.019Z,26.95
2022-10-18T07:18:08.126Z,26.97
2022-10-18T07:18:38.123Z,26.97
2022-10-18T07:19:08.235Z,26.95
2022-10-18T07:19:38.350Z,26.97
2022-10-18T07:20:08.454Z,26.95
2022-10-18T07:20:38.583Z,26.97
2022-10-18T07:21:08.586Z,26.98
2022-10-18T07:21:38.693Z,26.97
2022-10-18T07:22:08.828Z,26.97
2022-10-18T07:22:38.909Z,26.94
2022-10-18T07:23:09.020Z,26.95
2022-10-18T07:23:39.134Z,26.94
2022-10-18T07:24:09.244Z,26.95
2022-10-18T07:24:39.353Z,26.97
2022-10-18T07:25:09.506Z,26.98
2022-10-18T07:25:39.600Z,26.98
2022-10-18T07:26:09.665Z,27.02
2022-10-18T07:26:39.689Z,26.99
2022-10-18T07:27:09.795Z,27.01
2022-10-18T07:27:39.911Z,27.01
2022-10-18T07:28:10.046Z,27.02
2022-10-18T07:28:40.107Z,27.05
2022-10-18T07:29:49.174Z,27.01